createdAt,value
2022-12-25T00:00:46.215Z,7.13
2022-12-25T00:03:23.714Z,6.87
2022-12-25T00:05:51.753Z,5.95
2022-12-25T00:08:19.133Z,6.43
2022-12-25T00:10:46.362Z,6.55
2022-12-25T00:13:13.646Z,6.85
2022-12-25T00:15:41.691Z,6.75
2022-12-25T00:18:09.121Z,7.72
2022-12-25T00:20:36.328Z,6.85
2022-12-25T00:23:03.560Z,6.28
2022-12-25T00:25:30.856Z,6.07
2022-12-25T00:27:58.132Z,6.82
2022-12-25T00:30:25.359Z,7.30
2022-12-25T00:32:52.577Z,6.75
2022-12-25T00:35:19.771Z,5.85
2022-12-25T00:37:46.995Z,5.28
2022-12-25T00:40:14.231Z,6.32
2022-12-25T00:42:41.475Z,5.82
2022-12-25T00:45:09.147Z,5.07
2022-12-25T00:47:36.358Z,5.50
2022-12-25T00:50:03.976Z,5.75
2022-12-25T00:52:31.274Z,5.28
2022-12-25T00:54:58.455Z,5.22
2022-12-25T00:57:25.780Z,5.30
2022-12-25T00:59:53.049Z,5.47
2022-12-25T01:02:26.372Z,5.50
2022-12-25T01:04:55.955Z,4.82
2022-12-25T01:07:25.122Z,5.13
2022-12-25T01:10:11.431Z,5.28
2022-12-25T01:12:41.329Z,5.50
2022-12-25T01:17:37.051Z,5.65
2022-12-25T01:20:04.751Z,5.60
2022-12-25T01:22:31.992Z,5.68
2022-12-25T01:24:59.268Z,5.40
2022-12-25T01:27:26.538Z,5.70
2022-12-25T01:29:54.267Z,5.13
2022-12-25T01:32:21.506Z,5.63
2022-12-25T01:34:55.491Z,5.22
2022-12-25T01:37:24.920Z,5.90
2022-12-25T01:39:52.202Z,5.32
2022-12-25T01:42:21.494Z,5.15
2022-12-25T01:44:48.675Z,5.20
2022-12-25T01:47:18.376Z,5.32
2022-12-25T01:49:49.951Z,5.05
2022-12-25T01:52:24.034Z,4.90
2022-12-25T01:55:08.955Z,4.68
2022-12-25T01:57:39.308Z,5.20
2022-12-25T02:00:08.839Z,4.63
2022-12-25T02:02:37.255Z,4.85
2022-12-25T02:05:14.431Z,4.70
2022-12-25T02:07:43.032Z,4.72
2022-12-25T02:10:12.074Z,4.35
2022-12-25T02:12:41.306Z,5.13
2022-12-25T02:15:12.866Z,4.55
2022-12-25T02:17:47.548Z,4.30
2022-12-25T02:20:36.350Z,4.75
2022-12-25T02:23:34.072Z,4.47
2022-12-25T02:26:16.926Z,5.20
2022-12-25T02:28:52.342Z,5.00
2022-12-25T02:31:32.832Z,4.65
2022-12-25T02:34:12.796Z,4.32
2022-12-25T02:39:52.207Z,4.32
2022-12-25T02:42:24.301Z,4.45
2022-12-25T02:45:11.599Z,4.78
2022-12-25T02:47:58.037Z,5.00
2022-12-25T02:50:44.950Z,4.38
2022-12-25T02:53:31.533Z,4.22
2022-12-25T02:56:18.415Z,4.20
2022-12-25T02:59:05.338Z,4.28
2022-12-25T03:01:55.423Z,3.95
2022-12-25T03:04:43.912Z,4.57
2022-12-25T03:07:18.618Z,4.00
2022-12-25T03:10:10.983Z,4.50
2022-12-25T03:12:49.866Z,4.63
2022-12-25T03:15:37.763Z,5.95
2022-12-25T03:18:10.047Z,11.38
2022-12-25T03:20:56.615Z,10.77
2022-12-25T03:23:47.831Z,5.63
2022-12-25T03:26:47.671Z,4.30
2022-12-25T03:29:34.973Z,3.90
2022-12-25T03:32:14.458Z,3.80
2022-12-25T03:35:18.904Z,3.60
2022-12-25T03:38:44.180Z,3.60
2022-12-25T03:41:54.059Z,3.88
2022-12-25T03:44:53.939Z,4.55
2022-12-25T03:47:35.214Z,4.35
2022-12-25T03:50:39.761Z,3.83
2022-12-25T03:53:35.880Z,4.00
2022-12-25T03:56:22.627Z,3.50
2022-12-25T03:59:11.048Z,3.70
2022-12-25T04:01:56.779Z,3.70
2022-12-25T04:04:42.966Z,3.92
2022-12-25T04:07:28.841Z,4.32
2022-12-25T04:10:14.776Z,3.67
2022-12-25T04:13:00.536Z,4.20
2022-12-25T04:15:46.514Z,3.95
2022-12-25T04:18:32.137Z,5.00
2022-12-25T04:21:17.673Z,4.15
2022-12-25T04:24:03.576Z,4.50
2022-12-25T04:26:49.091Z,3.97
2022-12-25T04:29:34.887Z,4.22
2022-12-25T04:32:20.544Z,4.22
2022-12-25T04:35:05.978Z,3.95
2022-12-25T04:37:33.217Z,3.83
2022-12-25T04:40:00.438Z,4.63
2022-12-25T04:42:27.658Z,4.80
2022-12-25T04:44:54.844Z,4.63
2022-12-25T04:47:22.057Z,3.53
2022-12-25T04:49:50.274Z,4.10
2022-12-25T04:52:17.557Z,4.10
2022-12-25T04:54:44.781Z,3.80
2022-12-25T04:57:11.995Z,3.85
2022-12-25T04:59:39.251Z,3.75
2022-12-25T05:02:06.496Z,3.78
2022-12-25T05:04:33.884Z,3.90
2022-12-25T05:07:01.120Z,3.75
2022-12-25T05:09:28.367Z,4.05
2022-12-25T05:11:55.541Z,4.90
2022-12-25T05:14:22.746Z,4.22
2022-12-25T05:16:50.168Z,5.35
2022-12-25T05:19:17.440Z,9.10
2022-12-25T05:21:44.701Z,9.35
2022-12-25T05:24:12.031Z,9.13
2022-12-25T05:26:39.256Z,8.23
2022-12-25T05:29:06.791Z,7.78
2022-12-25T05:31:34.189Z,8.60
2022-12-25T05:34:01.586Z,13.77
2022-12-25T05:36:28.854Z,24.33
2022-12-25T05:38:56.054Z,10.25
2022-12-25T05:41:23.256Z,11.13
2022-12-25T05:43:50.543Z,12.48
2022-12-25T05:46:18.044Z,12.52
2022-12-25T05:48:45.505Z,10.00
2022-12-25T05:51:14.412Z,6.65
2022-12-25T05:53:43.226Z,6.50
2022-12-25T05:56:10.899Z,11.98
2022-12-25T05:58:39.696Z,8.00
2022-12-25T06:01:15.657Z,6.53
2022-12-25T06:03:42.973Z,6.30
2022-12-25T06:06:11.289Z,6.88
2022-12-25T06:08:38.535Z,6.97
2022-12-25T06:11:07.685Z,7.70
2022-12-25T06:13:36.123Z,7.00
2022-12-25T06:16:06.644Z,6.60
2022-12-25T06:18:41.980Z,10.02
2022-12-25T06:21:11.800Z,8.45
2022-12-25T06:23:39.807Z,9.57
2022-12-25T06:26:09.793Z,9.07
2022-12-25T06:31:13.632Z,7.63
2022-12-25T06:33:42.037Z,7.22
2022-12-25T06:36:16.043Z,7.65
2022-12-25T06:38:43.572Z,6.50
2022-12-25T06:41:13.149Z,7.13
2022-12-25T06:43:40.636Z,7.20
2022-12-25T06:46:10.233Z,6.57
2022-12-25T06:48:39.488Z,6.50
2022-12-25T06:51:07.198Z,6.45
2022-12-25T06:53:39.765Z,7.43
2022-12-25T06:56:16.040Z,7.25
2022-12-25T06:58:51.540Z,6.97
2022-12-25T07:01:35.256Z,9.57
2022-12-25T07:04:17.073Z,10.55
2022-12-25T07:06:44.371Z,18.98
2022-12-25T07:09:11.727Z,10.25
2022-12-25T07:11:39.032Z,11.25
2022-12-25T07:14:06.273Z,9.95
2022-12-25T07:16:33.715Z,9.20
2022-12-25T07:19:01.420Z,10.02
2022-12-25T07:21:28.689Z,19.05
2022-12-25T07:23:55.967Z,11.85
2022-12-25T07:26:23.261Z,11.50
2022-12-25T07:28:50.453Z,11.75
2022-12-25T07:31:18.379Z,9.98
2022-12-25T07:33:45.789Z,16.35
2022-12-25T07:36:13.980Z,14.63
2022-12-25T07:38:42.479Z,15.63
2022-12-25T07:41:11.676Z,8.20
2022-12-25T07:43:39.159Z,8.90
2022-12-25T07:46:07.126Z,7.75
2022-12-25T07:48:35.530Z,9.25
2022-12-25T07:51:06.977Z,7.70
2022-12-25T07:53:37.032Z,8.80
2022-12-25T07:56:07.238Z,9.45
2022-12-25T07:58:35.161Z,9.52
2022-12-25T08:01:05.530Z,11.27
2022-12-25T08:03:34.775Z,13.85
2022-12-25T08:06:03.904Z,69.72
2022-12-25T08:08:31.458Z,51.13
2022-12-25T08:10:58.779Z,28.95
2022-12-25T08:13:26.110Z,34.40
2022-12-25T08:16:00.991Z,34.42
2022-12-25T08:18:30.380Z,33.83
2022-12-25T08:21:03.716Z,34.95
2022-12-25T08:23:31.127Z,35.03
2022-12-25T08:26:05.402Z,33.60
2022-12-25T08:28:34.435Z,30.00
2022-12-25T08:31:19.757Z,29.27
2022-12-25T08:33:48.792Z,28.42
2022-12-25T08:36:16.899Z,30.33
2022-12-25T08:38:44.378Z,31.50
2022-12-25T08:41:12.589Z,23.45
2022-12-25T08:43:40.040Z,23.23
2022-12-25T08:46:08.165Z,24.88
2022-12-25T08:48:35.707Z,22.52
2022-12-25T08:51:03.657Z,22.75
2022-12-25T08:53:31.009Z,18.75
2022-12-25T08:56:00.635Z,13.60
2022-12-25T08:58:28.574Z,10.85
2022-12-25T09:00:56.530Z,11.77
2022-12-25T09:03:24.876Z,10.93
2022-12-25T09:05:53.146Z,12.50
2022-12-25T09:08:21.853Z,10.85
2022-12-25T09:10:50.015Z,10.05
2022-12-25T09:13:17.894Z,10.82
2022-12-25T09:15:45.267Z,13.07
2022-12-25T09:18:12.644Z,12.95
2022-12-25T09:20:39.952Z,12.40
2022-12-25T09:23:13.254Z,10.38
2022-12-25T09:25:41.155Z,7.18
2022-12-25T09:28:08.428Z,6.95
2022-12-25T09:30:35.697Z,6.88
2022-12-25T09:33:02.898Z,7.25
2022-12-25T09:35:30.207Z,16.38
2022-12-25T09:37:57.441Z,26.77
2022-12-25T09:40:29.237Z,32.38
2022-12-25T09:42:57.183Z,33.58
2022-12-25T09:45:33.315Z,17.85
2022-12-25T09:48:00.731Z,14.30
2022-12-25T09:50:41.254Z,28.60
2022-12-25T09:53:30.400Z,30.70
2022-12-25T09:56:14.716Z,34.00
2022-12-25T09:58:42.250Z,28.42
2022-12-25T10:01:12.490Z,18.45
2022-12-25T10:03:54.980Z,18.42
2022-12-25T10:06:50.319Z,16.33
2022-12-25T10:09:33.289Z,16.42
2022-12-25T10:12:15.785Z,16.63
2022-12-25T10:15:25.212Z,17.25
2022-12-25T10:17:58.541Z,23.33
2022-12-25T10:20:52.477Z,21.70
2022-12-25T10:23:37.179Z,18.02
2022-12-25T10:26:16.641Z,16.95
2022-12-25T10:29:05.577Z,17.35
2022-12-25T10:31:36.215Z,20.67
2022-12-25T10:34:05.151Z,24.20
2022-12-25T10:36:34.369Z,28.48
2022-12-25T10:39:01.642Z,28.85
2022-12-25T10:41:34.273Z,32.25
2022-12-25T10:44:21.658Z,26.10
2022-12-25T10:46:58.418Z,22.92
2022-12-25T10:49:31.516Z,24.10
2022-12-25T10:51:58.990Z,27.52
2022-12-25T10:54:44.587Z,29.67
2022-12-25T10:57:17.317Z,39.38
2022-12-25T11:00:05.666Z,38.58
2022-12-25T11:02:40.782Z,38.00
2022-12-25T11:05:14.208Z,27.30
2022-12-25T11:07:56.071Z,19.65
2022-12-25T11:10:27.318Z,21.98
2022-12-25T11:12:54.807Z,21.95
2022-12-25T11:15:37.261Z,27.80
2022-12-25T11:18:24.919Z,33.10
2022-12-25T11:20:55.067Z,37.45
2022-12-25T11:23:24.277Z,54.50
2022-12-25T11:26:12.820Z,53.08
2022-12-25T11:28:41.707Z,48.25
2022-12-25T11:31:13.055Z,43.07
2022-12-25T11:33:51.865Z,46.45
2022-12-25T11:36:47.016Z,46.40
2022-12-25T11:39:35.244Z,31.52
2022-12-25T11:42:10.222Z,31.38
2022-12-25T11:44:55.779Z,33.55
2022-12-25T11:47:29.213Z,33.33
2022-12-25T11:50:05.528Z,32.55
2022-12-25T11:52:37.377Z,24.15
2022-12-25T11:55:41.504Z,17.15
2022-12-25T11:58:25.253Z,10.77
2022-12-25T12:00:55.299Z,28.40
2022-12-25T12:03:27.507Z,15.20
2022-12-25T12:06:36.434Z,14.32
2022-12-25T12:09:26.927Z,11.70
2022-12-25T12:12:07.356Z,13.43
2022-12-25T12:14:34.652Z,12.73
2022-12-25T12:17:11.932Z,13.13
2022-12-25T12:19:39.455Z,12.88
2022-12-25T12:22:07.225Z,12.98
2022-12-25T12:24:41.872Z,13.02
2022-12-25T12:27:30.739Z,13.35
2022-12-25T12:29:59.692Z,14.90
2022-12-25T12:32:39.356Z,14.63
2022-12-25T12:35:28.378Z,14.18
2022-12-25T12:38:18.950Z,14.07
2022-12-25T12:41:00.318Z,15.25
2022-12-25T12:43:29.219Z,14.10
2022-12-25T12:46:01.486Z,10.67
2022-12-25T12:48:36.934Z,9.27
2022-12-25T12:51:13.023Z,11.45
2022-12-25T12:53:42.730Z,10.93
2022-12-25T12:56:16.715Z,9.75
2022-12-25T12:58:52.545Z,7.88
2022-12-25T13:01:32.832Z,9.60
2022-12-25T13:04:18.720Z,7.47
2022-12-25T13:06:58.861Z,9.90
2022-12-25T13:09:28.833Z,7.82
2022-12-25T13:11:56.653Z,11.45
2022-12-25T13:14:25.205Z,8.68
2022-12-25T13:16:54.591Z,21.73
2022-12-25T13:19:28.873Z,24.25
2022-12-25T13:21:58.928Z,23.67
2022-12-25T13:24:32.103Z,20.27
2022-12-25T13:27:00.425Z,19.10
2022-12-25T13:29:33.207Z,11.45
2022-12-25T13:32:03.210Z,12.48
2022-12-25T13:34:34.396Z,9.50
2022-12-25T13:37:08.881Z,8.95
2022-12-25T13:39:39.455Z,10.52
2022-12-25T13:42:09.543Z,11.73
2022-12-25T13:44:40.085Z,12.10
2022-12-25T13:47:40.749Z,13.18
2022-12-25T13:50:22.174Z,15.95
2022-12-25T13:52:50.150Z,16.80
2022-12-25T13:55:29.131Z,17.08
2022-12-25T13:57:59.347Z,17.63
2022-12-25T14:00:39.130Z,17.52
2022-12-25T14:03:07.815Z,15.82
2022-12-25T14:05:42.733Z,18.02
2022-12-25T14:08:20.871Z,23.98
2022-12-25T14:10:50.609Z,25.23
2022-12-25T14:13:21.380Z,21.58
2022-12-25T14:15:50.122Z,26.73
2022-12-25T14:18:19.283Z,31.52
2022-12-25T14:21:01.498Z,32.40
2022-12-25T14:23:41.311Z,32.60
2022-12-25T14:26:25.350Z,31.92
2022-12-25T14:29:02.086Z,27.17
2022-12-25T14:31:29.819Z,26.98
2022-12-25T14:33:59.727Z,24.42
2022-12-25T14:39:02.813Z,29.77
2022-12-25T14:41:37.954Z,35.75
2022-12-25T14:44:26.773Z,31.50
2022-12-25T14:47:20.454Z,27.30
2022-12-25T14:49:48.295Z,20.65
2022-12-25T14:52:28.265Z,21.40
2022-12-25T14:55:06.107Z,23.20
2022-12-25T14:57:37.915Z,24.85
2022-12-25T15:00:29.140Z,27.60
2022-12-25T15:02:58.635Z,45.17
2022-12-25T15:05:33.592Z,55.92
2022-12-25T15:08:10.309Z,57.38
2022-12-25T15:13:26.712Z,37.50
2022-12-25T15:15:54.373Z,47.03
2022-12-25T15:18:23.880Z,60.92
2022-12-25T15:20:52.637Z,56.53
2022-12-25T15:23:21.136Z,65.82
2022-12-25T15:25:48.806Z,71.53
2022-12-25T15:28:16.122Z,62.03
2022-12-25T15:30:43.533Z,57.75
2022-12-25T15:33:14.775Z,43.97
2022-12-25T15:35:44.466Z,51.33
2022-12-25T15:38:12.910Z,56.22
2022-12-25T15:40:41.703Z,44.85
2022-12-25T15:46:05.102Z,36.25
2022-12-25T15:48:32.385Z,32.60
2022-12-25T15:50:59.734Z,28.83
2022-12-25T15:53:27.080Z,28.00
2022-12-25T15:55:54.445Z,27.77
2022-12-25T15:58:22.348Z,26.98
2022-12-25T16:00:50.649Z,28.90
2022-12-25T16:03:17.967Z,32.78
2022-12-25T16:05:45.269Z,40.30
2022-12-25T16:08:12.506Z,41.92
2022-12-25T16:10:40.476Z,43.42
2022-12-25T16:13:07.791Z,38.58
2022-12-25T16:15:35.117Z,42.40
2022-12-25T16:18:02.701Z,45.15
2022-12-25T16:20:30.435Z,41.45
2022-12-25T16:22:57.682Z,40.10
2022-12-25T16:25:25.044Z,36.97
2022-12-25T16:27:52.262Z,37.33
2022-12-25T16:30:19.513Z,34.75
2022-12-25T16:32:49.921Z,31.52
2022-12-25T16:35:17.966Z,29.73
2022-12-25T16:37:45.253Z,32.50
2022-12-25T16:40:12.648Z,44.15
2022-12-25T16:42:40.384Z,52.20
2022-12-25T16:45:08.023Z,69.25
2022-12-25T16:47:35.381Z,107.93
2022-12-25T16:50:04.970Z,57.30
2022-12-25T16:52:34.179Z,44.08
2022-12-25T16:55:03.111Z,36.25
2022-12-25T16:57:32.266Z,37.25
2022-12-25T17:00:00.089Z,35.63
2022-12-25T17:02:27.517Z,34.05
2022-12-25T17:04:55.017Z,31.88
2022-12-25T17:07:22.227Z,30.67
2022-12-25T17:09:50.181Z,26.95
2022-12-25T17:12:17.827Z,31.05
2022-12-25T17:14:45.558Z,34.67
2022-12-25T17:17:12.813Z,31.55
2022-12-25T17:19:40.023Z,30.38
2022-12-25T17:22:07.557Z,28.50
2022-12-25T17:24:37.447Z,26.95
2022-12-25T17:29:39.040Z,24.40
2022-12-25T17:32:07.980Z,26.25
2022-12-25T17:34:35.467Z,25.98
2022-12-25T17:37:02.837Z,25.15
2022-12-25T17:39:30.265Z,26.90
2022-12-25T17:41:57.731Z,28.60
2022-12-25T17:44:25.012Z,32.75
2022-12-25T17:46:52.491Z,31.33
2022-12-25T17:49:21.796Z,29.38
2022-12-25T17:51:49.146Z,30.95
2022-12-25T17:54:16.465Z,29.30
2022-12-25T17:56:43.931Z,30.67
2022-12-25T17:59:18.029Z,29.05
2022-12-25T18:01:46.853Z,27.95
2022-12-25T18:04:14.463Z,27.52
2022-12-25T18:06:41.911Z,26.17
2022-12-25T18:09:11.247Z,27.42
2022-12-25T18:11:43.069Z,28.80
2022-12-25T18:14:14.738Z,27.98
2022-12-25T18:16:44.988Z,26.50
2022-12-25T18:19:14.401Z,26.45
2022-12-25T18:21:41.647Z,26.08
2022-12-25T18:24:09.446Z,28.30
2022-12-25T18:26:36.799Z,35.10
2022-12-25T18:29:04.385Z,32.95
2022-12-25T18:31:31.738Z,32.00
2022-12-25T18:34:00.283Z,48.72
2022-12-25T18:36:29.531Z,84.53
2022-12-25T18:38:57.789Z,63.10
2022-12-25T18:41:25.540Z,70.35
2022-12-25T18:43:55.702Z,52.17
2022-12-25T18:46:26.704Z,33.63
2022-12-25T18:48:55.916Z,30.58
2022-12-25T18:51:23.839Z,25.55
2022-12-25T18:53:51.424Z,26.25
2022-12-25T18:56:20.640Z,26.83
2022-12-25T18:58:48.131Z,26.45
2022-12-25T19:01:18.719Z,24.05
2022-12-25T19:03:49.439Z,25.65
2022-12-25T19:06:23.313Z,27.17
2022-12-25T19:08:50.754Z,31.35
2022-12-25T19:11:18.892Z,31.58
2022-12-25T19:13:46.461Z,29.38
2022-12-25T19:16:14.152Z,25.67
2022-12-25T19:18:41.971Z,25.42
2022-12-25T19:21:09.806Z,25.73
2022-12-25T19:23:40.707Z,25.52
2022-12-25T19:26:08.855Z,28.20
2022-12-25T19:28:36.996Z,27.90
2022-12-25T19:31:07.543Z,28.50
2022-12-25T19:33:36.729Z,29.48
2022-12-25T19:36:12.937Z,32.40
2022-12-25T19:38:40.652Z,31.42
2022-12-25T19:41:10.430Z,35.70
2022-12-25T19:43:40.368Z,45.00
2022-12-25T19:46:10.530Z,41.47
2022-12-25T19:48:37.827Z,47.05
2022-12-25T19:51:19.132Z,50.65
2022-12-25T19:53:47.313Z,47.05
2022-12-25T19:56:15.477Z,43.67
2022-12-25T19:58:43.300Z,38.38
2022-12-25T20:01:13.386Z,33.47
2022-12-25T20:03:46.209Z,33.90
2022-12-25T20:06:21.958Z,33.30
2022-12-25T20:08:54.706Z,31.60
2022-12-25T20:11:23.712Z,29.63
2022-12-25T20:13:51.105Z,29.30
2022-12-25T20:16:18.527Z,29.48
2022-12-25T20:18:46.130Z,29.05
2022-12-25T20:21:15.307Z,31.20
2022-12-25T20:23:43.988Z,26.77
2022-12-25T20:26:13.236Z,25.05
2022-12-25T20:28:41.918Z,23.20
2022-12-25T20:31:14.868Z,24.80
2022-12-25T20:33:42.263Z,23.52
2022-12-25T20:36:10.396Z,23.83
2022-12-25T20:38:37.576Z,23.10
2022-12-25T20:43:58.056Z,26.75
2022-12-25T20:46:26.116Z,25.38
2022-12-25T20:48:54.489Z,26.67
2022-12-25T20:51:24.028Z,27.65
2022-12-25T20:53:52.005Z,25.77
2022-12-25T20:56:21.325Z,25.88
2022-12-25T20:58:53.355Z,29.15
2022-12-25T21:01:20.976Z,27.20
2022-12-25T21:03:48.474Z,28.20
2022-12-25T21:06:16.968Z,25.88
2022-12-25T21:08:44.383Z,24.35
2022-12-25T21:11:12.104Z,25.98
2022-12-25T21:13:41.272Z,23.52
2022-12-25T21:16:12.194Z,27.52
2022-12-25T21:18:39.804Z,22.00
2022-12-25T21:21:08.202Z,23.10
2022-12-25T21:23:38.243Z,21.63
2022-12-25T21:26:09.664Z,23.42
2022-12-25T21:28:37.224Z,23.10
2022-12-25T21:31:08.509Z,26.40
2022-12-25T21:33:55.123Z,25.55
2022-12-25T21:36:31.293Z,25.05
2022-12-25T21:38:58.547Z,25.75
2022-12-25T21:41:28.152Z,24.63
2022-12-25T21:43:56.170Z,26.23
2022-12-25T21:46:24.123Z,25.35
2022-12-25T21:48:52.057Z,24.02
2022-12-25T21:51:43.824Z,26.08
2022-12-25T21:54:12.277Z,34.63
2022-12-25T21:56:44.805Z,30.40
2022-12-25T21:59:18.433Z,27.05
2022-12-25T22:01:46.820Z,21.88
2022-12-25T22:04:15.958Z,21.00
2022-12-25T22:07:02.833Z,20.75
2022-12-25T22:09:30.266Z,23.40
2022-12-25T22:12:16.656Z,22.05
2022-12-25T22:14:54.754Z,23.55
2022-12-25T22:17:46.601Z,22.27
2022-12-25T22:20:17.335Z,21.05
2022-12-25T22:22:45.038Z,21.77
2022-12-25T22:25:13.700Z,22.55
2022-12-25T22:27:42.961Z,22.38
2022-12-25T22:30:22.161Z,24.17
2022-12-25T22:32:50.519Z,26.40
2022-12-25T22:35:18.614Z,24.20
2022-12-25T22:37:45.947Z,25.05
2022-12-25T22:40:16.856Z,27.20
2022-12-25T22:42:44.343Z,24.30
2022-12-25T22:45:12.458Z,25.83
2022-12-25T22:47:40.172Z,24.38
2022-12-25T22:50:08.763Z,22.55
2022-12-25T22:52:38.963Z,23.50
2022-12-25T22:55:07.831Z,22.17
2022-12-25T22:57:35.623Z,21.20
2022-12-25T23:00:03.653Z,21.52
2022-12-25T23:02:30.997Z,22.90
2022-12-25T23:04:58.335Z,23.70
2022-12-25T23:07:25.584Z,21.83
2022-12-25T23:09:52.798Z,21.25
2022-12-25T23:12:38.680Z,20.25
2022-12-25T23:15:06.686Z,25.00
2022-12-25T23:17:52.609Z,23.02
2022-12-25T23:20:38.463Z,20.27
2022-12-25T23:23:24.152Z,22.08
2022-12-25T23:26:07.582Z,21.33
2022-12-25T23:28:58.637Z,20.08
2022-12-25T23:31:29.990Z,20.95
2022-12-25T23:33:57.632Z,20.55
2022-12-25T23:36:25.094Z,23.05
2022-12-25T23:38:52.381Z,21.88
2022-12-25T23:41:19.704Z,19.73
2022-12-25T23:43:46.934Z,20.00
2022-12-25T23:46:14.208Z,18.85
2022-12-25T23:48:41.533Z,19.23
2022-12-25T23:51:09.067Z,19.60
2022-12-25T23:53:36.655Z,21.02
2022-12-25T23:56:04.658Z,20.85
